createdAt,value
2018-02-17T00:00:02.161Z,91017.72
2018-02-17T00:02:30.018Z,91814.23
2018-02-17T00:04:57.843Z,91790.88
2018-02-17T00:07:25.696Z,92070.47
2018-02-17T00:09:53.524Z,93329.50
2018-02-17T00:12:21.451Z,93283.82
2018-02-17T00:14:49.334Z,93235.52
2018-02-17T00:17:17.186Z,94091.63
2018-02-17T00:19:45.002Z,99503.92
2018-02-17T00:22:12.914Z,100594.59
2018-02-17T00:24:40.844Z,101142.30
2018-02-17T00:27:08.750Z,100994.44
2018-02-17T00:29:36.576Z,100334.44
2018-02-17T00:32:04.444Z,99604.61
2018-02-17T00:34:32.243Z,98658.41
2018-02-17T00:37:00.010Z,98129.91
2018-02-17T00:39:27.871Z,97124.53
2018-02-17T00:41:55.677Z,96781.30
2018-02-17T00:44:23.551Z,96972.22
2018-02-17T00:46:51.367Z,97506.92
2018-02-17T00:49:19.246Z,97366.35
2018-02-17T00:51:47.102Z,97035.53
2018-02-17T00:54:14.981Z,96331.64
2018-02-17T00:56:42.794Z,96019.22
2018-02-17T00:59:10.632Z,94604.26
2018-02-17T01:01:38.428Z,92849.03
2018-02-17T01:04:06.281Z,92349.50
2018-02-17T01:06:34.087Z,91787.12
2018-02-17T01:09:02.000Z,91987.77
2018-02-17T01:11:29.793Z,91543.72
2018-02-17T01:13:57.636Z,92396.16
2018-02-17T01:16:25.441Z,93567.59
2018-02-17T01:18:53.303Z,92796.83
2018-02-17T01:21:21.103Z,93047.74
2018-02-17T01:23:48.966Z,93846.16
2018-02-17T01:26:16.815Z,93847.00
2018-02-17T01:28:44.709Z,93487.70
2018-02-17T01:31:12.551Z,92223.01
2018-02-17T01:33:40.420Z,93350.97
2018-02-17T01:36:08.217Z,90992.77
2018-02-17T01:38:36.108Z,90618.50
2018-02-17T01:41:03.952Z,90966.44
2018-02-17T01:43:31.813Z,91548.66
2018-02-17T01:45:59.661Z,90971.20
2018-02-17T01:48:27.521Z,91568.94
2018-02-17T01:50:55.387Z,91076.27
2018-02-17T01:53:23.278Z,90825.08
2018-02-17T01:55:51.145Z,91101.30
2018-02-17T01:58:19.116Z,91417.52
2018-02-17T02:00:46.903Z,91300.83
2018-02-17T02:03:14.742Z,91262.73
2018-02-17T02:05:42.526Z,91376.45
2018-02-17T02:08:10.360Z,92521.45
2018-02-17T02:10:38.168Z,92543.23
2018-02-17T02:13:06.040Z,91961.55
2018-02-17T02:15:33.849Z,92686.60
2018-02-17T02:18:01.746Z,93103.17
2018-02-17T02:20:29.556Z,92579.22
2018-02-17T02:22:57.374Z,92851.03
2018-02-17T02:25:25.216Z,92938.67
2018-02-17T02:27:53.007Z,93861.84
2018-02-17T02:30:20.910Z,93255.42
2018-02-17T02:32:48.718Z,93479.22
2018-02-17T02:35:16.554Z,93697.73
2018-02-17T02:37:44.396Z,93842.38
2018-02-17T02:40:12.255Z,93992.07
2018-02-17T02:42:40.052Z,94257.49
2018-02-17T02:45:07.921Z,94186.08
2018-02-17T02:47:35.745Z,94690.98
2018-02-17T02:50:03.652Z,94733.84
2018-02-17T02:52:31.456Z,94606.67
2018-02-17T02:54:59.312Z,94628.42
2018-02-17T02:57:27.106Z,94956.03
2018-02-17T02:59:54.949Z,94795.33
2018-02-17T03:02:22.744Z,94872.80
2018-02-17T03:04:50.609Z,94964.98
2018-02-17T03:07:18.411Z,95021.62
2018-02-17T03:09:46.203Z,95080.38
2018-02-17T03:12:14.003Z,95152.53
2018-02-17T03:14:41.864Z,95206.36
2018-02-17T03:17:09.671Z,95357.94
2018-02-17T03:19:37.524Z,95314.97
2018-02-17T03:22:05.386Z,95342.65
2018-02-17T03:24:33.289Z,95384.64
2018-02-17T03:27:01.125Z,95416.88
2018-02-17T03:29:28.955Z,95413.89
2018-02-17T03:31:56.781Z,95426.65
2018-02-17T03:34:24.575Z,95464.94
2018-02-17T03:36:52.393Z,95572.14
2018-02-17T03:39:20.265Z,95711.17
2018-02-17T03:41:48.077Z,95429.94
2018-02-17T03:44:15.934Z,95759.50
2018-02-17T03:46:43.743Z,95469.57
2018-02-17T03:49:11.633Z,95392.40
2018-02-17T03:51:39.450Z,95677.80
2018-02-17T03:54:07.303Z,95469.38
2018-02-17T03:56:35.107Z,95416.98
2018-02-17T03:59:02.962Z,95443.88
2018-02-17T04:01:30.752Z,95628.30
2018-02-17T04:03:58.566Z,95515.20
2018-02-17T04:06:26.419Z,95509.73
2018-02-17T04:08:54.202Z,95530.95
2018-02-17T04:11:22.048Z,95514.89
2018-02-17T04:13:49.844Z,95520.37
2018-02-17T04:16:17.688Z,95576.75
2018-02-17T04:18:45.482Z,95553.98
2018-02-17T04:21:13.372Z,95569.70
2018-02-17T04:23:41.217Z,95567.73
2018-02-17T04:26:09.052Z,95549.29
2018-02-17T04:28:36.848Z,95505.89
2018-02-17T04:31:04.720Z,95524.55
2018-02-17T04:33:32.515Z,95506.50
2018-02-17T04:36:00.354Z,95577.38
2018-02-17T04:38:28.195Z,95574.83
2018-02-17T04:41:00.536Z,95914.05
2018-02-17T04:43:32.817Z,95564.25
2018-02-17T04:46:16.448Z,95534.98
2018-02-17T04:48:55.117Z,95542.81
2018-02-17T04:51:23.072Z,95724.22
2018-02-17T04:54:05.755Z,95495.13
2018-02-17T04:56:39.250Z,95517.30
2018-02-17T04:59:12.561Z,95491.20
2018-02-17T05:01:45.888Z,95508.69
2018-02-17T05:04:28.570Z,95554.03
2018-02-17T05:07:00.770Z,95516.34
2018-02-17T05:09:28.672Z,95605.86
2018-02-17T05:11:56.583Z,95602.53
2018-02-17T05:14:24.912Z,95655.91
2018-02-17T05:16:59.402Z,95611.36
2018-02-17T05:19:33.295Z,95649.64
2018-02-17T05:22:01.203Z,95690.08
2018-02-17T05:24:30.515Z,95667.53
2018-02-17T05:26:59.243Z,95697.34
2018-02-17T05:29:38.813Z,95768.18
2018-02-17T05:32:10.685Z,95758.19
2018-02-17T05:34:38.542Z,95751.91
2018-02-17T05:37:06.442Z,95841.80
2018-02-17T05:39:36.099Z,95841.22
2018-02-17T05:42:08.874Z,95850.23
2018-02-17T05:44:52.367Z,95926.77
2018-02-17T05:47:25.920Z,95838.26
2018-02-17T05:49:53.822Z,95852.02
2018-02-17T05:52:21.659Z,95857.70
2018-02-17T05:54:49.445Z,95956.44
2018-02-17T05:57:17.319Z,95882.05
2018-02-17T05:59:45.126Z,95776.81
2018-02-17T06:02:12.993Z,95845.91
2018-02-17T06:04:40.845Z,95708.88
2018-02-17T06:07:08.749Z,95784.69
2018-02-17T06:09:36.561Z,95882.17
2018-02-17T06:12:04.500Z,95949.45
2018-02-17T06:14:32.368Z,96045.69
2018-02-17T06:17:00.317Z,96112.95
2018-02-17T06:19:28.163Z,96160.55
2018-02-17T06:21:55.964Z,96213.23
2018-02-17T06:24:23.790Z,96213.40
2018-02-17T06:26:51.697Z,96244.13
2018-02-17T06:29:19.491Z,96256.05
2018-02-17T06:31:47.349Z,96312.50
2018-02-17T06:34:15.210Z,96317.98
2018-02-17T06:36:43.059Z,96325.30
2018-02-17T06:39:10.882Z,96364.33
2018-02-17T06:41:38.755Z,96356.72
2018-02-17T06:44:06.552Z,96340.27
2018-02-17T06:46:34.430Z,96234.40
2018-02-17T06:49:02.241Z,96136.77
2018-02-17T06:51:30.167Z,96205.80
2018-02-17T06:53:58.037Z,96249.95
2018-02-17T06:56:25.958Z,96261.91
2018-02-17T06:58:53.772Z,96312.52
2018-02-17T07:01:21.690Z,96336.09
2018-02-17T07:03:49.500Z,96357.11
2018-02-17T07:06:17.400Z,96370.67
2018-02-17T07:08:45.241Z,96386.80
2018-02-17T07:11:13.105Z,96435.66
2018-02-17T07:13:40.901Z,96478.08
2018-02-17T07:16:08.800Z,96519.71
2018-02-17T07:18:36.612Z,96525.85
2018-02-17T07:21:04.460Z,96521.80
2018-02-17T07:23:32.270Z,96527.55
2018-02-17T07:26:00.156Z,96525.11
2018-02-17T07:28:28.044Z,96504.33
2018-02-17T07:30:55.872Z,96435.05
2018-02-17T07:33:23.767Z,96423.63
2018-02-17T07:35:51.616Z,96443.22
2018-02-17T07:38:19.528Z,96435.39
2018-02-17T07:40:47.327Z,96421.48
2018-02-17T07:43:15.196Z,96414.44
2018-02-17T07:45:43.029Z,96432.53
2018-02-17T07:48:10.967Z,96452.95
2018-02-17T07:50:38.815Z,96446.49
2018-02-17T07:53:06.672Z,96439.45
2018-02-17T07:55:34.547Z,96418.67
2018-02-17T07:58:02.424Z,96385.09
2018-02-17T08:00:30.269Z,96391.13
2018-02-17T08:02:58.201Z,96393.35
2018-02-17T08:05:26.063Z,96428.34
2018-02-17T08:07:53.974Z,96429.56
2018-02-17T08:10:21.879Z,96397.41
2018-02-17T08:12:49.764Z,96380.92
2018-02-17T08:15:17.603Z,96367.05
2018-02-17T08:17:45.529Z,96353.08
2018-02-17T08:20:13.405Z,96327.74
2018-02-17T08:22:41.297Z,96339.72
2018-02-17T08:25:09.181Z,96362.92
2018-02-17T08:27:37.096Z,96356.45
2018-02-17T08:30:04.951Z,96359.81
2018-02-17T08:32:32.989Z,96356.09
2018-02-17T08:35:00.860Z,96344.55
2018-02-17T08:37:28.767Z,96385.29
2018-02-17T08:39:56.626Z,96394.42
2018-02-17T08:42:24.502Z,96381.88
2018-02-17T08:44:52.352Z,96392.52
2018-02-17T08:47:20.246Z,96429.94
2018-02-17T08:49:48.115Z,96383.58
2018-02-17T08:52:16.029Z,96428.28
2018-02-17T08:54:43.883Z,96477.53
2018-02-17T08:57:11.807Z,96498.80
2018-02-17T08:59:39.716Z,96476.41
2018-02-17T09:02:07.640Z,96505.98
2018-02-17T09:04:35.489Z,96549.75
2018-02-17T09:07:03.419Z,96608.46
2018-02-17T09:09:31.207Z,96648.11
2018-02-17T09:11:59.136Z,96649.72
2018-02-17T09:14:26.984Z,96677.55
2018-02-17T09:16:54.855Z,96721.67
2018-02-17T09:19:22.770Z,96707.21
2018-02-17T09:21:50.649Z,96921.02
2018-02-17T09:24:18.650Z,97012.16
2018-02-17T09:26:46.537Z,97155.77
2018-02-17T09:29:14.456Z,97133.53
2018-02-17T09:31:42.293Z,97275.88
2018-02-17T09:34:10.209Z,97823.75
2018-02-17T09:36:38.024Z,98523.52
2018-02-17T09:39:05.989Z,99127.50
2018-02-17T09:41:33.849Z,99647.93
2018-02-17T09:44:02.672Z,100161.06
2018-02-17T09:46:30.521Z,100707.77
2018-02-17T09:48:58.385Z,101008.83
2018-02-17T09:51:26.346Z,101214.30
2018-02-17T09:53:54.259Z,101371.63
2018-02-17T09:56:22.124Z,101475.34
2018-02-17T09:58:50.025Z,101537.45
2018-02-17T10:01:17.905Z,101614.96
2018-02-17T10:03:45.837Z,101669.26
2018-02-17T10:06:13.678Z,101750.42
2018-02-17T10:08:41.573Z,101910.61
2018-02-17T10:11:09.464Z,102105.23
2018-02-17T10:13:37.376Z,102352.33
2018-02-17T10:16:05.180Z,102649.85
2018-02-17T10:18:33.058Z,102878.01
2018-02-17T10:21:00.891Z,102991.64
2018-02-17T10:23:28.808Z,103073.27
2018-02-17T10:25:56.723Z,103109.25
2018-02-17T10:28:24.624Z,103106.95
2018-02-17T10:30:52.461Z,103128.30
2018-02-17T10:33:20.376Z,103142.39
2018-02-17T10:35:48.198Z,103154.42
2018-02-17T10:38:16.113Z,103117.23
2018-02-17T10:40:43.932Z,103162.48
2018-02-17T10:43:11.832Z,103178.14
2018-02-17T10:45:39.697Z,103266.83
2018-02-17T10:48:07.584Z,103085.30
2018-02-17T10:50:35.473Z,103316.58
2018-02-17T10:53:03.317Z,103374.20
2018-02-17T10:55:36.550Z,103392.15
2018-02-17T10:58:04.451Z,103402.83
2018-02-17T11:00:32.351Z,103441.39
2018-02-17T11:03:00.305Z,103470.31
2018-02-17T11:05:28.156Z,103504.13
2018-02-17T11:07:55.982Z,103536.09
2018-02-17T11:10:23.885Z,103005.85
2018-02-17T11:12:51.771Z,102986.64
2018-02-17T11:15:19.676Z,103024.46
2018-02-17T11:17:48.518Z,103051.35
2018-02-17T11:20:16.456Z,103090.84
2018-02-17T11:22:44.273Z,103136.66
2018-02-17T11:25:12.171Z,103169.54
2018-02-17T11:27:40.052Z,103290.41
2018-02-17T11:30:07.955Z,103354.12
2018-02-17T11:32:35.829Z,103391.38
2018-02-17T11:35:03.721Z,103416.91
2018-02-17T11:37:31.600Z,103439.41
2018-02-17T11:39:59.504Z,103456.13
2018-02-17T11:42:27.368Z,103475.47
2018-02-17T11:44:55.236Z,103513.80
2018-02-17T11:47:23.110Z,103538.08
2018-02-17T11:49:51.080Z,103545.85
2018-02-17T11:52:18.884Z,103536.94
2018-02-17T11:54:46.738Z,103555.91
2018-02-17T11:57:14.612Z,103564.70
2018-02-17T11:59:42.525Z,103567.41
2018-02-17T12:02:10.403Z,103568.35
2018-02-17T12:04:38.274Z,103562.30
2018-02-17T12:07:06.157Z,103559.45
2018-02-17T12:09:34.028Z,103567.73
2018-02-17T12:12:01.904Z,103569.61
2018-02-17T12:14:29.788Z,103587.88
2018-02-17T12:16:57.681Z,103587.77
2018-02-17T12:19:25.565Z,103591.31
2018-02-17T12:21:53.417Z,103586.53
2018-02-17T12:24:21.284Z,103588.03
2018-02-17T12:26:49.149Z,103590.30
2018-02-17T12:29:17.044Z,103588.45
2018-02-17T12:31:44.920Z,103583.98
2018-02-17T12:34:12.794Z,103583.55
2018-02-17T12:36:40.638Z,103569.55
2018-02-17T12:39:08.479Z,103568.34
2018-02-17T12:41:36.294Z,103565.56
2018-02-17T12:44:04.187Z,103548.08
2018-02-17T12:46:32.016Z,103556.83
2018-02-17T12:48:59.917Z,103550.14
2018-02-17T12:51:27.785Z,103548.26
2018-02-17T12:53:55.752Z,103542.19
2018-02-17T12:56:23.649Z,103539.64
2018-02-17T12:58:51.526Z,103545.58
2018-02-17T13:01:19.427Z,103548.33
2018-02-17T13:03:47.259Z,103545.20
2018-02-17T13:06:15.175Z,103535.44
2018-02-17T13:08:43.051Z,103532.45
2018-02-17T13:11:10.933Z,103534.59
2018-02-17T13:13:38.800Z,103535.89
2018-02-17T13:16:06.713Z,103525.28
2018-02-17T13:18:35.106Z,103528.53
2018-02-17T13:21:03.020Z,103535.55
2018-02-17T13:23:30.829Z,103535.50
2018-02-17T13:25:58.681Z,103538.44
2018-02-17T13:28:26.529Z,103547.28
2018-02-17T13:30:54.376Z,103545.17
2018-02-17T13:33:22.233Z,103554.54
2018-02-17T13:35:50.088Z,103552.39
2018-02-17T13:38:17.953Z,103550.96
2018-02-17T13:40:45.838Z,103559.41
2018-02-17T13:43:13.671Z,103574.04
2018-02-17T13:45:41.529Z,103579.25
2018-02-17T13:48:09.374Z,103573.45
2018-02-17T13:50:37.323Z,103582.70
2018-02-17T13:53:05.158Z,103580.11
2018-02-17T13:55:33.072Z,103592.41
2018-02-17T13:58:00.901Z,103596.44
2018-02-17T14:00:28.798Z,103593.32
2018-02-17T14:02:56.628Z,103603.50
2018-02-17T14:05:24.536Z,103608.23
2018-02-17T14:07:52.388Z,103607.61
2018-02-17T14:10:20.295Z,103609.85
2018-02-17T14:12:48.066Z,103617.30
2018-02-17T14:15:15.924Z,103614.63
2018-02-17T14:17:43.807Z,103616.11
2018-02-17T14:20:11.649Z,103606.23
2018-02-17T14:22:39.458Z,103609.42
2018-02-17T14:25:07.369Z,103614.83
2018-02-17T14:27:35.236Z,103613.39
2018-02-17T14:30:03.158Z,103619.08
2018-02-17T14:32:30.992Z,103622.08
2018-02-17T14:34:58.829Z,103625.61
2018-02-17T14:37:26.725Z,103635.40
2018-02-17T14:39:54.588Z,103640.64
2018-02-17T14:42:22.390Z,103639.39
2018-02-17T14:44:50.228Z,103644.59
2018-02-17T14:47:18.135Z,103656.32
2018-02-17T14:49:46.034Z,103661.00
2018-02-17T14:52:13.901Z,103657.27
2018-02-17T14:54:41.814Z,103663.53
2018-02-17T14:57:09.712Z,103673.64
2018-02-17T14:59:37.568Z,103680.03
2018-02-17T15:02:05.421Z,103686.42
2018-02-17T15:04:33.263Z,103692.69
2018-02-17T15:07:01.128Z,103690.38
2018-02-17T15:09:29.000Z,103700.69
2018-02-17T15:11:56.856Z,103712.16
2018-02-17T15:14:24.645Z,103719.08
2018-02-17T15:16:52.506Z,103716.61
2018-02-17T15:19:20.326Z,103709.39
2018-02-17T15:21:48.183Z,103717.46
2018-02-17T15:24:16.039Z,103730.57
2018-02-17T15:26:43.938Z,103736.53
2018-02-17T15:29:11.816Z,103735.91
2018-02-17T15:31:39.735Z,103738.77
2018-02-17T15:34:07.565Z,103738.13
2018-02-17T15:36:35.429Z,103737.95
2018-02-17T15:39:03.378Z,103737.94
2018-02-17T15:41:31.249Z,103731.66
2018-02-17T15:44:00.037Z,103730.49
2018-02-17T15:46:27.993Z,103746.89
2018-02-17T15:48:55.845Z,103748.69
2018-02-17T15:51:23.756Z,103749.54
2018-02-17T15:53:51.608Z,103754.66
2018-02-17T15:56:19.848Z,103753.45
2018-02-17T15:58:47.685Z,103756.98
2018-02-17T16:01:15.600Z,103763.03
2018-02-17T16:03:43.424Z,103752.52
2018-02-17T16:06:11.358Z,103756.33
2018-02-17T16:08:39.219Z,103756.33
2018-02-17T16:11:07.116Z,103768.43
2018-02-17T16:13:34.947Z,103766.84
2018-02-17T16:16:02.798Z,103771.20
2018-02-17T16:18:30.645Z,103780.66
2018-02-17T16:20:58.500Z,103787.77
2018-02-17T16:23:26.403Z,103793.47
2018-02-17T16:25:54.273Z,103804.45
2018-02-17T16:28:22.191Z,103819.37
2018-02-17T16:30:50.062Z,103835.12
2018-02-17T16:33:17.943Z,103828.23
2018-02-17T16:35:45.792Z,103838.77
2018-02-17T16:38:13.748Z,103841.55
2018-02-17T16:40:41.592Z,103845.79
2018-02-17T16:43:09.522Z,103839.29
2018-02-17T16:45:37.363Z,103840.37
2018-02-17T16:48:05.277Z,103842.80
2018-02-17T16:50:33.240Z,103843.33
2018-02-17T16:53:01.064Z,103844.94
2018-02-17T16:55:28.894Z,103843.85
2018-02-17T16:57:56.785Z,103853.95
2018-02-17T17:00:24.596Z,103861.81
2018-02-17T17:02:52.496Z,103858.39
2018-02-17T17:05:20.372Z,103857.31
2018-02-17T17:07:48.308Z,103852.94
2018-02-17T17:10:16.145Z,103853.68
2018-02-17T17:12:44.025Z,103860.16
2018-02-17T17:15:11.872Z,103859.95
2018-02-17T17:17:39.792Z,103857.94
2018-02-17T17:20:07.648Z,103857.84
2018-02-17T17:22:35.561Z,103868.07
2018-02-17T17:25:03.408Z,103856.53
2018-02-17T17:27:31.301Z,103870.54
2018-02-17T17:29:59.197Z,103866.38
2018-02-17T17:32:27.196Z,103874.98
2018-02-17T17:34:55.041Z,103874.23
2018-02-17T17:37:22.947Z,103874.66
2018-02-17T17:39:50.820Z,103872.45
2018-02-17T17:42:18.709Z,103897.47
2018-02-17T17:44:46.709Z,103885.67
2018-02-17T17:47:14.575Z,103881.22
2018-02-17T17:49:42.439Z,103895.85
2018-02-17T17:52:10.320Z,103892.23
2018-02-17T17:54:38.161Z,103888.63
2018-02-17T17:57:06.077Z,103882.70
2018-02-17T17:59:33.937Z,103877.95
2018-02-17T18:02:02.274Z,103881.31
2018-02-17T18:04:30.142Z,103880.83
2018-02-17T18:06:58.000Z,103881.45
2018-02-17T18:09:26.089Z,103885.31
2018-02-17T18:11:53.900Z,103894.03
2018-02-17T18:14:21.808Z,103895.62
2018-02-17T18:16:49.681Z,103904.33
2018-02-17T18:19:17.577Z,103909.02
2018-02-17T18:21:45.407Z,103897.00
2018-02-17T18:24:13.299Z,103904.78
2018-02-17T18:26:41.160Z,103898.52
2018-02-17T18:29:09.080Z,103911.68
2018-02-17T18:31:36.951Z,103919.50
2018-02-17T18:34:04.892Z,103925.45
2018-02-17T18:36:32.789Z,103925.05
2018-02-17T18:39:00.657Z,103924.87
2018-02-17T18:41:28.527Z,103918.95
2018-02-17T18:43:56.408Z,103922.42
2018-02-17T18:46:24.269Z,103924.22
2018-02-17T18:48:52.228Z,104009.31
2018-02-17T18:51:20.108Z,103983.41
2018-02-17T18:53:48.030Z,103964.79
2018-02-17T18:56:15.832Z,103972.50
2018-02-17T18:58:43.728Z,103969.05
2018-02-17T19:01:11.587Z,103976.03
2018-02-17T19:03:39.496Z,103975.38
2018-02-17T19:06:07.338Z,103968.50
2018-02-17T19:08:35.198Z,103965.48
2018-02-17T19:11:03.060Z,103966.21
2018-02-17T19:13:30.986Z,103966.20
2018-02-17T19:15:58.859Z,103967.47
2018-02-17T19:18:26.744Z,103971.50
2018-02-17T19:20:54.571Z,103971.86
2018-02-17T19:23:22.420Z,103963.15
2018-02-17T19:25:50.226Z,103955.43
2018-02-17T19:28:18.092Z,103957.63
2018-02-17T19:30:45.925Z,103961.68
2018-02-17T19:33:13.809Z,103957.72
2018-02-17T19:35:41.690Z,103952.76
2018-02-17T19:38:09.575Z,103949.14
2018-02-17T19:40:37.388Z,103954.91
2018-02-17T19:43:05.285Z,103942.89
2018-02-17T19:45:33.141Z,103946.25
2018-02-17T19:48:01.012Z,103941.77
2018-02-17T19:50:28.920Z,103944.05
2018-02-17T19:52:56.752Z,103940.83
2018-02-17T19:55:24.656Z,103947.46
2018-02-17T19:57:52.732Z,103955.66
2018-02-17T20:00:20.635Z,103946.98
2018-02-17T20:02:48.513Z,103949.18
2018-02-17T20:05:16.411Z,103957.33
2018-02-17T20:07:44.285Z,103953.62
2018-02-17T20:10:12.779Z,103950.24
2018-02-17T20:12:40.665Z,103952.13
2018-02-17T20:15:08.560Z,103946.34
2018-02-17T20:17:36.398Z,103956.23
2018-02-17T20:20:04.335Z,103967.31
2018-02-17T20:22:32.204Z,103984.43
2018-02-17T20:25:00.117Z,103986.85
2018-02-17T20:27:27.963Z,103991.30
2018-02-17T20:29:55.849Z,104004.48
2018-02-17T20:32:23.704Z,104010.94
2018-02-17T20:34:51.580Z,104011.02
2018-02-17T20:37:19.416Z,104016.11
2018-02-17T20:39:47.337Z,104011.94
2018-02-17T20:42:15.204Z,104006.94
2018-02-17T20:44:43.104Z,104017.78
2018-02-17T20:47:10.923Z,104010.48
2018-02-17T20:49:38.869Z,104020.47
2018-02-17T20:52:06.731Z,104030.50
2018-02-17T20:54:34.681Z,104037.91
2018-02-17T20:57:02.497Z,104044.80
2018-02-17T20:59:30.359Z,104046.89
2018-02-17T21:01:58.178Z,104057.63
2018-02-17T21:04:26.076Z,104061.88
2018-02-17T21:06:53.954Z,104066.61
2018-02-17T21:09:21.779Z,104068.66
2018-02-17T21:11:49.630Z,104078.02
2018-02-17T21:14:17.537Z,104102.81
2018-02-17T21:16:45.417Z,104097.87
2018-02-17T21:19:13.309Z,104104.45
2018-02-17T21:21:41.164Z,104106.44
2018-02-17T21:24:09.042Z,104117.38
2018-02-17T21:26:36.857Z,104120.49
2018-02-17T21:29:04.785Z,104153.28
2018-02-17T21:31:32.608Z,104153.94
2018-02-17T21:34:00.486Z,104152.55
2018-02-17T21:36:28.336Z,104165.59
2018-02-17T21:38:56.157Z,104177.17
2018-02-17T21:41:24.041Z,104198.78
2018-02-17T21:43:51.877Z,104221.59
2018-02-17T21:46:19.774Z,104284.04
2018-02-17T21:48:47.655Z,108361.42
2018-02-17T21:51:15.615Z,108412.41
2018-02-17T21:53:43.459Z,108476.45
2018-02-17T21:56:11.383Z,108467.14
2018-02-17T21:58:39.235Z,108404.45
2018-02-17T22:01:07.084Z,106591.00
2018-02-17T22:03:34.924Z,102242.95
2018-02-17T22:06:02.824Z,102185.61
2018-02-17T22:08:30.693Z,102063.77
2018-02-17T22:10:58.583Z,101805.23
2018-02-17T22:13:26.437Z,101201.85
2018-02-17T22:15:54.356Z,101193.83
2018-02-17T22:18:22.230Z,101660.58
2018-02-17T22:20:50.021Z,102182.83
2018-02-17T22:23:17.882Z,102903.41
2018-02-17T22:25:45.792Z,103386.31
2018-02-17T22:28:13.649Z,103504.13
2018-02-17T22:30:41.537Z,103974.74
2018-02-17T22:33:09.392Z,104034.56
2018-02-17T22:35:37.276Z,104060.07
2018-02-17T22:38:05.086Z,104069.28
2018-02-17T22:40:32.976Z,104077.03
2018-02-17T22:43:00.812Z,104086.97
2018-02-17T22:45:28.668Z,104093.52
2018-02-17T22:47:56.483Z,104100.83
2018-02-17T22:50:24.386Z,104100.03
2018-02-17T22:52:52.247Z,104100.44
2018-02-17T22:55:20.105Z,104108.42
2018-02-17T22:57:47.945Z,104118.24
2018-02-17T23:00:33.585Z,104113.45
2018-02-17T23:03:01.433Z,104115.97
2018-02-17T23:05:29.320Z,104120.25
2018-02-17T23:07:57.136Z,104125.82
2018-02-17T23:10:25.066Z,104128.95
2018-02-17T23:12:52.933Z,104130.33
2018-02-17T23:15:20.838Z,104138.89
2018-02-17T23:17:48.643Z,104135.11
2018-02-17T23:20:16.483Z,104145.02
2018-02-17T23:22:44.331Z,104141.87
2018-02-17T23:25:12.241Z,104156.16
2018-02-17T23:27:40.115Z,104156.85
2018-02-17T23:30:07.969Z,104165.63
2018-02-17T23:32:35.776Z,104172.89
2018-02-17T23:35:03.606Z,104181.97
2018-02-17T23:37:31.480Z,104188.77
2018-02-17T23:39:59.303Z,104197.34
2018-02-17T23:42:27.143Z,104206.31
2018-02-17T23:44:54.980Z,104216.29
2018-02-17T23:47:22.838Z,104213.84
2018-02-17T23:49:50.673Z,104233.64
2018-02-17T23:52:18.548Z,104225.39
2018-02-17T23:54:46.359Z,104227.48
2018-02-17T23:57:14.204Z,104226.66
2018-02-17T23:59:42.013Z,104217.43
